createdAt,value
2024-03-06T00:00:28.097Z,77362.34
2024-03-06T00:02:56.316Z,77362.34
2024-03-06T00:05:23.521Z,77362.34
2024-03-06T00:07:50.824Z,77366.38
2024-03-06T00:10:17.703Z,77370.38
2024-03-06T00:12:44.790Z,77374.38
2024-03-06T00:15:13.004Z,77378.38
2024-03-06T00:17:39.802Z,77370.38
2024-03-06T00:20:07.731Z,77374.38
2024-03-06T00:22:34.859Z,77382.38
2024-03-06T00:25:02.311Z,77384.38
2024-03-06T00:27:29.987Z,77390.38
2024-03-06T00:29:58.945Z,77392.38
2024-03-06T00:32:26.270Z,77382.38
2024-03-06T00:34:54.074Z,77390.38
2024-03-06T00:37:21.391Z,77394.38
2024-03-06T00:39:49.142Z,77402.41
2024-03-06T00:42:16.650Z,77404.41
2024-03-06T00:44:44.733Z,77394.38
2024-03-06T00:47:11.650Z,77392.38
2024-03-06T00:49:40.243Z,77398.38
2024-03-06T00:52:07.465Z,77402.41
2024-03-06T00:54:34.299Z,77398.38
2024-03-06T00:57:02.648Z,77406.41
2024-03-06T00:59:29.728Z,77410.41
2024-03-06T01:01:59.538Z,77410.41
2024-03-06T01:04:26.903Z,77418.41
2024-03-06T01:06:54.020Z,77422.41
2024-03-06T01:09:21.228Z,77422.41
2024-03-06T01:11:49.310Z,77422.41
2024-03-06T01:14:17.841Z,77430.41
2024-03-06T01:16:45.127Z,77426.41
2024-03-06T01:19:12.241Z,77426.41
2024-03-06T01:21:39.867Z,77430.41
2024-03-06T01:24:07.037Z,77418.41
2024-03-06T01:26:33.992Z,77426.41
2024-03-06T01:29:02.099Z,77434.44
2024-03-06T01:31:29.348Z,77430.41
2024-03-06T01:33:56.779Z,77438.44
2024-03-06T01:36:23.815Z,77442.44
2024-03-06T01:38:51.072Z,77450.44
2024-03-06T01:41:18.147Z,77434.44
2024-03-06T01:43:45.391Z,77446.44
2024-03-06T01:46:12.582Z,77432.41
2024-03-06T01:48:40.670Z,77442.44
2024-03-06T01:51:08.609Z,77442.44
2024-03-06T01:53:36.518Z,77440.44
2024-03-06T01:56:05.363Z,77434.44
2024-03-06T01:58:35.127Z,77438.44
2024-03-06T02:01:03.586Z,77442.44
2024-03-06T02:03:33.274Z,77438.44
2024-03-06T02:06:03.596Z,77442.44
2024-03-06T02:08:30.814Z,77442.44
2024-03-06T02:10:58.917Z,77450.44
2024-03-06T02:13:26.491Z,77448.44
2024-03-06T02:15:53.563Z,77434.44
2024-03-06T02:18:20.685Z,77450.44
2024-03-06T02:20:48.679Z,77446.44
2024-03-06T02:23:18.766Z,77446.44
2024-03-06T02:25:48.606Z,77458.44
2024-03-06T02:28:15.787Z,77442.44
2024-03-06T02:30:42.913Z,77442.44
2024-03-06T02:33:13.449Z,77446.44
2024-03-06T02:35:41.358Z,77442.44
2024-03-06T02:38:08.771Z,77442.44
2024-03-06T02:40:35.944Z,77462.44
2024-03-06T02:43:04.000Z,77450.44
2024-03-06T02:45:31.170Z,77450.44
2024-03-06T02:47:58.388Z,77458.44
2024-03-06T02:50:25.701Z,77454.44
2024-03-06T02:52:54.473Z,77446.44
2024-03-06T02:55:24.811Z,77452.44
2024-03-06T02:57:52.471Z,77458.44
2024-03-06T03:00:19.767Z,77462.44
2024-03-06T03:02:46.881Z,77462.44
2024-03-06T03:05:14.177Z,77458.44
2024-03-06T03:07:41.798Z,77456.44
2024-03-06T03:10:09.335Z,77452.44
2024-03-06T03:12:36.711Z,77462.44
2024-03-06T03:15:04.247Z,77470.47
2024-03-06T03:17:31.764Z,77474.47
2024-03-06T03:19:58.998Z,77472.47
2024-03-06T03:22:26.709Z,77478.47
2024-03-06T03:24:53.892Z,77466.44
2024-03-06T03:27:20.579Z,77478.47
2024-03-06T03:29:47.574Z,77476.47
2024-03-06T03:32:17.918Z,77462.44
2024-03-06T03:34:45.670Z,77478.47
2024-03-06T03:37:14.446Z,77478.47
2024-03-06T03:39:43.292Z,77486.47
2024-03-06T03:42:10.099Z,77494.47
2024-03-06T03:44:37.584Z,77492.47
2024-03-06T03:47:04.506Z,77500.47
2024-03-06T03:49:31.342Z,77494.47
2024-03-06T03:51:58.782Z,77500.47
2024-03-06T03:54:25.982Z,77502.47
2024-03-06T03:56:53.279Z,77506.50
2024-03-06T03:59:20.161Z,77490.47
2024-03-06T04:01:49.948Z,77506.50
2024-03-06T04:04:17.159Z,77498.47
2024-03-06T04:06:44.214Z,77502.47
2024-03-06T04:09:11.204Z,77506.50
2024-03-06T04:11:39.201Z,77506.50
2024-03-06T04:14:08.042Z,77512.50
2024-03-06T04:16:36.339Z,77514.50
2024-03-06T04:19:04.711Z,77518.50
2024-03-06T04:21:32.474Z,77526.50
2024-03-06T04:23:59.557Z,77514.50
2024-03-06T04:26:26.756Z,77514.50
2024-03-06T04:28:53.977Z,77522.50
2024-03-06T04:31:21.323Z,77530.50
2024-03-06T04:33:48.794Z,77534.50
2024-03-06T04:36:15.908Z,77538.53
2024-03-06T04:38:43.038Z,77540.53
2024-03-06T04:41:11.708Z,77544.53
2024-03-06T04:43:39.302Z,77550.53
2024-03-06T04:46:06.836Z,77546.53
2024-03-06T04:48:34.067Z,77546.53
2024-03-06T04:51:01.675Z,77546.53
2024-03-06T04:53:29.023Z,77550.53
2024-03-06T04:55:55.977Z,77546.53
2024-03-06T04:58:23.418Z,77550.53
2024-03-06T05:00:51.168Z,77554.53
2024-03-06T05:58:22.639Z,77622.59
2024-03-06T06:00:49.935Z,77634.59
2024-03-06T06:03:17.226Z,77634.59
2024-03-06T06:05:44.585Z,77634.59
2024-03-06T06:08:11.769Z,77634.59
2024-03-06T06:10:38.920Z,77630.59
2024-03-06T06:13:06.472Z,77630.59
2024-03-06T06:15:33.697Z,77630.59
2024-03-06T06:18:01.472Z,77638.59
2024-03-06T06:20:28.980Z,77638.59
2024-03-06T06:22:56.071Z,77646.63
2024-03-06T06:25:24.554Z,77646.63
2024-03-06T06:27:52.457Z,77648.63
2024-03-06T06:30:20.035Z,77650.63
2024-03-06T06:32:47.621Z,77646.63
2024-03-06T06:35:15.291Z,77654.63
2024-03-06T06:37:42.883Z,77650.63
2024-03-06T06:40:10.722Z,77662.63
2024-03-06T06:42:38.551Z,77658.63
2024-03-06T06:45:10.917Z,77672.63
2024-03-06T06:47:38.408Z,77674.66
2024-03-06T06:50:07.028Z,77674.66
2024-03-06T06:52:35.348Z,77670.63
2024-03-06T06:55:03.826Z,77674.66
2024-03-06T06:57:31.910Z,77670.63
2024-03-06T06:59:59.347Z,77672.63
2024-03-06T07:02:26.633Z,77678.66
2024-03-06T07:04:53.900Z,77674.66
2024-03-06T07:07:20.839Z,77672.63
2024-03-06T07:09:47.923Z,77666.63
2024-03-06T07:12:14.796Z,77666.63
2024-03-06T07:14:42.764Z,77664.63
2024-03-06T07:17:10.384Z,77666.63
2024-03-06T07:19:38.283Z,77678.66
2024-03-06T07:22:05.457Z,77682.66
2024-03-06T07:24:33.730Z,77690.66
2024-03-06T07:27:04.789Z,77674.66
2024-03-06T07:29:32.146Z,77684.66
2024-03-06T07:31:59.330Z,77686.66
2024-03-06T07:34:26.541Z,77682.66
2024-03-06T07:36:54.550Z,77690.66
2024-03-06T07:39:21.810Z,77686.66
2024-03-06T07:41:49.068Z,77682.66
2024-03-06T07:44:16.311Z,77682.66
2024-03-06T07:46:43.676Z,77686.66
2024-03-06T07:49:10.499Z,77678.66
2024-03-06T07:51:37.623Z,77686.66
2024-03-06T07:54:05.270Z,77682.66
2024-03-06T07:56:32.713Z,77686.66
2024-03-06T07:58:59.764Z,77686.66
2024-03-06T08:01:30.156Z,77686.66
2024-03-06T08:03:57.862Z,77686.66
2024-03-06T08:06:24.996Z,77678.66
2024-03-06T08:08:53.739Z,77688.66
2024-03-06T08:11:23.110Z,77686.66
2024-03-06T08:13:51.042Z,77690.66
2024-03-06T08:16:19.343Z,77694.66
2024-03-06T08:18:46.160Z,77698.66
2024-03-06T08:21:13.114Z,77696.66
2024-03-06T08:23:40.235Z,77690.66
2024-03-06T08:26:08.867Z,77694.66
2024-03-06T08:28:35.905Z,77700.66
2024-03-06T08:31:03.635Z,77702.66
2024-03-06T08:33:30.876Z,77704.66
2024-03-06T08:35:59.439Z,77702.66
2024-03-06T08:38:26.911Z,77706.66
2024-03-06T08:40:53.832Z,77702.66
2024-03-06T08:43:21.730Z,77710.69
2024-03-06T08:45:48.900Z,77702.66
2024-03-06T08:48:16.517Z,77706.66
2024-03-06T08:50:43.952Z,77710.69
2024-03-06T08:53:11.692Z,77706.66
2024-03-06T08:55:39.864Z,77714.69
2024-03-06T08:58:06.614Z,77714.69
2024-03-06T09:00:33.846Z,77714.69
2024-03-06T09:03:01.260Z,77708.69
2024-03-06T09:05:28.472Z,77710.69
2024-03-06T09:07:55.575Z,77702.66
2024-03-06T09:10:23.037Z,77714.69
2024-03-06T09:12:50.309Z,77710.69
2024-03-06T09:15:17.740Z,77708.69
2024-03-06T09:17:47.034Z,77706.66
2024-03-06T09:20:14.994Z,77710.69
2024-03-06T09:22:44.250Z,77710.69
2024-03-06T09:25:15.393Z,77714.69
2024-03-06T09:27:44.385Z,77712.69
2024-03-06T09:30:14.496Z,77718.69
2024-03-06T09:32:43.236Z,77714.69
2024-03-06T09:35:10.915Z,77726.69
2024-03-06T09:37:37.977Z,77718.69
2024-03-06T09:40:05.224Z,77720.69
2024-03-06T09:42:32.579Z,77722.69
2024-03-06T09:45:01.193Z,77722.69
2024-03-06T09:47:33.750Z,77722.69
2024-03-06T09:50:04.272Z,77726.69
2024-03-06T09:52:32.259Z,77726.69
2024-03-06T09:55:00.858Z,77734.69
2024-03-06T09:57:28.200Z,77734.69
2024-03-06T09:59:55.618Z,77730.69
2024-03-06T10:02:46.805Z,77734.69
2024-03-06T10:05:24.615Z,77730.69
2024-03-06T10:07:53.553Z,77730.69
2024-03-06T10:10:23.973Z,77730.69
2024-03-06T10:12:52.018Z,77734.69
2024-03-06T10:15:19.693Z,77732.69
2024-03-06T10:17:47.879Z,77728.69
2024-03-06T10:20:23.431Z,77726.69
2024-03-06T10:22:58.415Z,77722.69
2024-03-06T10:25:28.159Z,77720.69
2024-03-06T10:28:04.459Z,77718.69
2024-03-06T10:30:32.439Z,77720.69
2024-03-06T10:33:01.148Z,77722.69
2024-03-06T10:35:29.322Z,77718.69
2024-03-06T10:37:56.945Z,77720.69
2024-03-06T10:40:24.977Z,77734.69
2024-03-06T10:42:53.030Z,77722.69
2024-03-06T10:45:25.349Z,77726.69
2024-03-06T10:47:53.083Z,77730.69
2024-03-06T10:50:22.058Z,77730.69
2024-03-06T10:52:53.220Z,77722.69
2024-03-06T10:55:22.127Z,77722.69
2024-03-06T10:57:49.541Z,77718.69
2024-03-06T11:00:20.440Z,77722.69
2024-03-06T11:02:49.138Z,77728.69
2024-03-06T11:05:17.577Z,77730.69
2024-03-06T11:07:45.082Z,77718.69
2024-03-06T11:10:17.579Z,77720.69
2024-03-06T11:12:49.433Z,77716.69
2024-03-06T11:15:19.869Z,77716.69
2024-03-06T11:17:47.377Z,77712.69
2024-03-06T11:20:20.733Z,77714.69
2024-03-06T11:22:57.219Z,77704.66
2024-03-06T11:25:52.515Z,77710.69
2024-03-06T11:28:21.595Z,77706.66
2024-03-06T11:31:00.291Z,77706.66
2024-03-06T11:33:48.191Z,77706.66
2024-03-06T11:36:32.747Z,77710.69
2024-03-06T11:39:04.081Z,77714.69
2024-03-06T11:41:33.430Z,77710.69
2024-03-06T11:44:01.773Z,77718.69
2024-03-06T11:46:58.860Z,77710.69
2024-03-06T11:49:30.447Z,77710.69
2024-03-06T11:52:00.113Z,77706.66
2024-03-06T11:54:28.434Z,77704.66
2024-03-06T11:56:57.555Z,77702.66
2024-03-06T11:59:29.587Z,77702.66
2024-03-06T12:01:58.965Z,77702.66
2024-03-06T12:04:26.367Z,77702.66
2024-03-06T12:06:53.740Z,77702.66
2024-03-06T12:09:21.225Z,77706.66
2024-03-06T12:11:48.755Z,77702.66
2024-03-06T12:14:19.217Z,77708.69
2024-03-06T12:16:59.586Z,77702.66
2024-03-06T12:19:29.685Z,77704.66
2024-03-06T12:21:56.984Z,77706.66
2024-03-06T12:24:24.202Z,77710.69
2024-03-06T12:27:04.784Z,77706.66
2024-03-06T12:29:34.166Z,77706.66
2024-03-06T12:32:04.809Z,77704.66
2024-03-06T12:34:32.483Z,77700.66
2024-03-06T12:37:13.227Z,77700.66
2024-03-06T12:39:43.362Z,77696.66
2024-03-06T12:42:13.025Z,77694.66
2024-03-06T12:44:42.381Z,77698.66
2024-03-06T12:47:09.347Z,77682.66
2024-03-06T12:49:36.377Z,77690.66
2024-03-06T12:52:06.158Z,77688.66
2024-03-06T12:54:34.215Z,77682.66
2024-03-06T12:57:01.977Z,77678.66
2024-03-06T12:59:29.375Z,77676.66
2024-03-06T13:01:56.926Z,77678.66
2024-03-06T13:04:24.250Z,77674.66
2024-03-06T13:06:51.560Z,77670.63
2024-03-06T13:09:18.626Z,77674.66
2024-03-06T13:11:45.917Z,77672.63
2024-03-06T13:14:14.482Z,77670.63
2024-03-06T13:16:41.721Z,77668.63
2024-03-06T13:19:09.602Z,77666.63
2024-03-06T13:21:37.018Z,77662.63
2024-03-06T13:24:05.341Z,77658.63
2024-03-06T13:26:32.686Z,77656.63
2024-03-06T13:29:01.229Z,77664.63
2024-03-06T13:31:28.531Z,77660.63
2024-03-06T13:33:55.784Z,77660.63
2024-03-06T13:36:24.052Z,77662.63
2024-03-06T13:38:52.552Z,77658.63
2024-03-06T13:41:20.429Z,77654.63
2024-03-06T13:43:47.875Z,77662.63
2024-03-06T13:46:15.778Z,77654.63
2024-03-06T13:48:42.935Z,77654.63
2024-03-06T13:51:10.162Z,77654.63
2024-03-06T13:53:37.374Z,77654.63
2024-03-06T13:56:04.830Z,77654.63
2024-03-06T13:58:31.731Z,77660.63
2024-03-06T14:00:59.085Z,77650.63
2024-03-06T14:03:27.097Z,77654.63
2024-03-06T14:05:54.430Z,77650.63
2024-03-06T14:08:23.455Z,77650.63
2024-03-06T14:10:50.398Z,77642.63
2024-03-06T14:13:17.960Z,77638.59
2024-03-06T14:15:45.693Z,77634.59
2024-03-06T14:18:12.924Z,77630.59
2024-03-06T14:20:41.164Z,77634.59
2024-03-06T14:23:09.494Z,77634.59
2024-03-06T14:25:38.978Z,77638.59
2024-03-06T14:28:06.264Z,77638.59
2024-03-06T14:30:33.726Z,77642.63
2024-03-06T14:33:00.748Z,77642.63
2024-03-06T14:35:28.408Z,77642.63
2024-03-06T14:37:55.931Z,77638.59
2024-03-06T14:40:22.797Z,77634.59
2024-03-06T14:42:51.720Z,77646.63
2024-03-06T14:45:20.157Z,77646.63
2024-03-06T14:47:47.360Z,77646.63
2024-03-06T14:50:14.484Z,77646.63
2024-03-06T14:52:41.491Z,77646.63
2024-03-06T14:55:10.005Z,77638.59
2024-03-06T14:57:37.547Z,77642.63
2024-03-06T15:00:08.284Z,77638.59
2024-03-06T15:02:40.132Z,77644.63
2024-03-06T15:05:07.510Z,77650.63
2024-03-06T15:07:34.939Z,77650.63
2024-03-06T15:10:02.672Z,77654.63
2024-03-06T15:12:29.688Z,77650.63
2024-03-06T15:14:58.760Z,77646.63
2024-03-06T15:17:27.386Z,77642.63
2024-03-06T15:19:55.154Z,77650.63
2024-03-06T15:22:22.099Z,77646.63
2024-03-06T15:24:50.016Z,77654.63
2024-03-06T15:27:17.631Z,77654.63
2024-03-06T15:29:47.936Z,77658.63
2024-03-06T15:32:15.229Z,77658.63
2024-03-06T15:34:42.211Z,77662.63
2024-03-06T15:37:09.777Z,77658.63
2024-03-06T15:39:36.611Z,77662.63
2024-03-06T15:42:04.264Z,77666.63
2024-03-06T15:44:31.335Z,77668.63
2024-03-06T15:47:06.690Z,77670.63
2024-03-06T15:49:38.179Z,77662.63
2024-03-06T15:52:05.741Z,77670.63
2024-03-06T15:54:33.074Z,77672.63
2024-03-06T15:57:00.026Z,77670.63
2024-03-06T15:59:29.343Z,77670.63
2024-03-06T16:01:57.218Z,77670.63
2024-03-06T16:04:24.190Z,77674.66
2024-03-06T16:06:51.247Z,77670.63
2024-03-06T16:09:18.434Z,77666.63
2024-03-06T16:11:45.831Z,77670.63
2024-03-06T16:14:13.806Z,77670.63
2024-03-06T16:16:42.053Z,77670.63
2024-03-06T16:19:09.321Z,77678.66
2024-03-06T16:21:36.523Z,77674.66
2024-03-06T16:24:08.587Z,77678.66
2024-03-06T16:26:38.001Z,77680.66
2024-03-06T16:29:06.116Z,77682.66
2024-03-06T16:31:33.672Z,77686.66
2024-03-06T16:34:00.647Z,77688.66
2024-03-06T16:36:27.944Z,77686.66
2024-03-06T16:38:55.158Z,77694.66
2024-03-06T16:41:22.288Z,77690.66
2024-03-06T16:43:49.434Z,77690.66
2024-03-06T16:46:18.413Z,77694.66
2024-03-06T16:48:45.828Z,77694.66
2024-03-06T16:51:20.004Z,77694.66
2024-03-06T16:53:47.507Z,77698.66
2024-03-06T16:56:15.444Z,77702.66
2024-03-06T16:58:42.657Z,77702.66
2024-03-06T17:01:09.827Z,77698.66
2024-03-06T17:03:37.523Z,77704.66
2024-03-06T17:06:05.375Z,77706.66
2024-03-06T17:08:33.272Z,77714.69
2024-03-06T17:11:00.299Z,77710.69
2024-03-06T17:13:28.015Z,77714.69
2024-03-06T17:15:56.187Z,77714.69
2024-03-06T17:18:23.339Z,77716.69
2024-03-06T17:20:51.274Z,77722.69
2024-03-06T17:23:19.097Z,77718.69
2024-03-06T17:25:46.473Z,77726.69
2024-03-06T17:28:14.070Z,77728.69
2024-03-06T17:30:42.609Z,77734.69
2024-03-06T17:33:10.376Z,77738.72
2024-03-06T17:35:37.262Z,77738.72
2024-03-06T17:38:04.419Z,77746.72
2024-03-06T17:40:31.703Z,77750.72
2024-03-06T17:42:58.841Z,77750.72
2024-03-06T17:45:26.124Z,77750.72
2024-03-06T17:47:54.078Z,77752.72
2024-03-06T17:50:22.247Z,77750.72
2024-03-06T17:52:50.106Z,77758.72
2024-03-06T17:55:17.349Z,77764.72
2024-03-06T17:57:47.608Z,77762.72
2024-03-06T18:00:18.722Z,77766.72
2024-03-06T18:02:46.862Z,77772.75
2024-03-06T18:05:14.417Z,77770.75
2024-03-06T18:07:47.134Z,77768.72
2024-03-06T18:10:15.716Z,77774.75
2024-03-06T18:12:42.685Z,77774.75
2024-03-06T18:15:10.485Z,77776.75
2024-03-06T18:17:39.284Z,77790.75
2024-03-06T18:20:08.969Z,77782.75
2024-03-06T18:22:38.649Z,77788.75
2024-03-06T18:25:07.221Z,77794.75
2024-03-06T18:27:35.590Z,77792.75
2024-03-06T18:30:04.178Z,77790.75
2024-03-06T18:32:32.423Z,77790.75
2024-03-06T18:34:59.621Z,77792.75
2024-03-06T18:37:26.615Z,77798.75
2024-03-06T18:39:54.430Z,77802.78
2024-03-06T18:42:22.554Z,77806.78
2024-03-06T18:44:50.686Z,77806.78
2024-03-06T18:47:18.301Z,77810.78
2024-03-06T18:49:45.861Z,77814.78
2024-03-06T18:52:12.739Z,77820.78
2024-03-06T18:54:41.264Z,77822.78
2024-03-06T18:57:09.661Z,77822.78
2024-03-06T18:59:39.045Z,77820.78
2024-03-06T19:02:06.659Z,77820.78
2024-03-06T19:04:33.942Z,77822.78
2024-03-06T19:07:00.912Z,77826.78
2024-03-06T19:09:28.679Z,77830.78
2024-03-06T19:11:56.229Z,77828.78
2024-03-06T19:14:23.777Z,77828.78
2024-03-06T19:16:51.374Z,77828.78
2024-03-06T19:19:19.348Z,77834.78
2024-03-06T19:21:46.682Z,77838.81
2024-03-06T19:24:14.030Z,77838.81
2024-03-06T19:26:42.068Z,77838.81
2024-03-06T19:29:09.735Z,77846.81
2024-03-06T19:31:36.806Z,77844.81
2024-03-06T19:34:04.497Z,77842.81
2024-03-06T19:36:31.869Z,77846.81
2024-03-06T19:38:59.146Z,77842.81
2024-03-06T19:41:26.973Z,77850.81
2024-03-06T19:43:53.908Z,77846.81
2024-03-06T19:46:20.673Z,77854.81
2024-03-06T19:48:47.540Z,77850.81
2024-03-06T19:51:17.244Z,77850.81
2024-03-06T19:53:45.347Z,77850.81
2024-03-06T19:56:13.898Z,77858.81
2024-03-06T19:58:40.824Z,77858.81
2024-03-06T20:01:08.765Z,77862.81
2024-03-06T20:03:36.239Z,77866.84
2024-03-06T20:06:03.265Z,77866.84
2024-03-06T20:08:30.402Z,77862.81
2024-03-06T20:10:58.243Z,77866.84
2024-03-06T20:13:25.630Z,77866.84
2024-03-06T20:15:52.891Z,77870.84
2024-03-06T20:18:19.917Z,77870.84
2024-03-06T20:20:47.770Z,77866.84
2024-03-06T20:23:15.321Z,77866.84
2024-03-06T20:25:43.292Z,77866.84
2024-03-06T20:28:11.419Z,77870.84
2024-03-06T20:30:42.379Z,77870.84
2024-03-06T20:33:10.312Z,77874.84
2024-03-06T20:35:37.722Z,77870.84
2024-03-06T20:38:05.237Z,77870.84
2024-03-06T20:40:33.562Z,77874.84
2024-03-06T20:43:00.922Z,77874.84
2024-03-06T20:45:27.831Z,77868.84
2024-03-06T20:48:01.617Z,77878.84
2024-03-06T20:50:29.510Z,77870.84
2024-03-06T20:52:57.426Z,77874.84
2024-03-06T20:55:24.517Z,77878.84
2024-03-06T20:57:51.753Z,77878.84
2024-03-06T21:00:20.370Z,77878.84
2024-03-06T21:02:48.940Z,77870.84
2024-03-06T21:05:17.942Z,77878.84
2024-03-06T21:07:45.234Z,77878.84
2024-03-06T21:10:16.063Z,77884.84
2024-03-06T21:12:49.633Z,77886.84
2024-03-06T21:15:17.837Z,77890.84
2024-03-06T21:17:45.227Z,77890.84
2024-03-06T21:20:13.435Z,77896.88
2024-03-06T21:22:42.109Z,77890.84
2024-03-06T21:25:10.362Z,77890.84
2024-03-06T21:27:38.346Z,77890.84
2024-03-06T21:30:07.516Z,77888.84
2024-03-06T21:32:38.701Z,77898.88
2024-03-06T21:35:06.100Z,77894.84
2024-03-06T21:37:34.004Z,77894.84
2024-03-06T21:40:04.263Z,77898.88
2024-03-06T21:42:31.876Z,77894.84
2024-03-06T21:44:59.565Z,77898.88
2024-03-06T21:47:27.846Z,77900.88
2024-03-06T21:49:55.547Z,77898.88
2024-03-06T21:52:22.643Z,77898.88
2024-03-06T21:54:49.451Z,77906.88
2024-03-06T21:57:16.840Z,77900.88
2024-03-06T21:59:44.006Z,77906.88
2024-03-06T22:02:14.109Z,77906.88
2024-03-06T22:04:41.269Z,77906.88
2024-03-06T22:07:08.334Z,77910.88
2024-03-06T22:09:38.452Z,77914.88
2024-03-06T22:12:06.428Z,77914.88
2024-03-06T22:14:33.743Z,77910.88
2024-03-06T22:17:00.927Z,77916.88
2024-03-06T22:19:28.266Z,77924.88
2024-03-06T22:21:55.385Z,77926.88
2024-03-06T22:24:22.838Z,77918.88
2024-03-06T22:26:50.623Z,77930.91
2024-03-06T22:29:18.071Z,77924.88
2024-03-06T22:31:45.615Z,77922.88
2024-03-06T22:34:12.953Z,77928.91
2024-03-06T22:36:40.088Z,77938.91
2024-03-06T22:39:07.969Z,77928.91
2024-03-06T22:41:37.240Z,77938.91
2024-03-06T22:44:06.648Z,77930.91
2024-03-06T22:46:44.277Z,77932.91
2024-03-06T22:49:18.705Z,77938.91
2024-03-06T22:51:45.779Z,77942.91
2024-03-06T22:54:12.950Z,77950.91
2024-03-06T22:56:40.918Z,77938.91
2024-03-06T22:59:08.881Z,77936.91
2024-03-06T23:01:37.212Z,77940.91
2024-03-06T23:04:05.326Z,77938.91
2024-03-06T23:06:32.467Z,77940.91
2024-03-06T23:09:00.766Z,77942.91
2024-03-06T23:11:30.472Z,77950.91
2024-03-06T23:13:57.871Z,77954.91
2024-03-06T23:16:25.123Z,77954.91
2024-03-06T23:18:53.115Z,77940.91
2024-03-06T23:21:20.392Z,77950.91
2024-03-06T23:23:47.970Z,77950.91
2024-03-06T23:26:15.682Z,77954.91
2024-03-06T23:28:42.988Z,77954.91
2024-03-06T23:31:10.549Z,77958.94
2024-03-06T23:33:37.332Z,77960.94
2024-03-06T23:36:05.009Z,77956.94
2024-03-06T23:38:32.104Z,77954.91
2024-03-06T23:40:59.525Z,77954.91
2024-03-06T23:43:26.477Z,77966.94
2024-03-06T23:45:53.172Z,77966.94
2024-03-06T23:48:20.905Z,77966.94
2024-03-06T23:50:48.088Z,77958.94
2024-03-06T23:53:16.151Z,77962.94
2024-03-06T23:55:43.187Z,77962.94
2024-03-06T23:58:10.692Z,77960.94
